SHT58E EGJJ-EGLL
Flight info
| Callsign | SHT58E |
|---|---|
| Flight time | 0h 38m |
| Altitude | 21000 |
| Route | ORIST L982 ROXOG |
| Aircraft | A320/M-SDE3FGHIRWY/LB1 |
Departure
| Time | 2026-05-05 18:01 |
|---|---|
| Airport | Jersey Airport (EGJJ) |
Arrival
| Time | 2026-05-05 18:40 |
|---|---|
| Airport | London Heathrow Airport (EGLL) |
| Time | Latitude | Longitude | Altitude | Speed | Heading |
|---|---|---|---|---|---|
| 2026-05-05 17:39 | 49.20556 | -2.19700 | 280 ft | 0 kts | 174° |
| 2026-05-05 17:40 | 49.20560 | -2.19700 | 280 ft | 0 kts | 174° |
| 2026-05-05 17:54 | 49.20563 | -2.19700 | 282 ft | 3 kts | 174° |
| 2026-05-05 17:54 | 49.20589 | -2.19706 | 284 ft | 4 kts | 172° |
| 2026-05-05 17:55 | 49.20613 | -2.19704 | 286 ft | 3 kts | 220° |
| 2026-05-05 17:55 | 49.20627 | -2.19685 | 282 ft | 1 kts | 222° |
| 2026-05-05 17:55 | 49.20628 | -2.19684 | 282 ft | 0 kts | 222° |
| 2026-05-05 17:58 | 49.20626 | -2.19687 | 280 ft | 1 kts | 223° |
| 2026-05-05 17:58 | 49.20617 | -2.19712 | 283 ft | 4 kts | 249° |
| 2026-05-05 17:59 | 49.20611 | -2.19779 | 280 ft | 8 kts | 263° |
| 2026-05-05 17:59 | 49.20603 | -2.19887 | 283 ft | 12 kts | 259° |
| 2026-05-05 17:59 | 49.20530 | -2.19938 | 280 ft | 11 kts | 206° |
| 2026-05-05 17:59 | 49.20531 | -2.20055 | 280 ft | 15 kts | 286° |
| 2026-05-05 18:00 | 49.20566 | -2.20231 | 286 ft | 20 kts | 287° |
| 2026-05-05 18:00 | 49.20612 | -2.20470 | 280 ft | 26 kts | 286° |
| 2026-05-05 18:00 | 49.20647 | -2.20690 | 283 ft | 12 kts | 334° |
| 2026-05-05 18:00 | 49.20709 | -2.20628 | 280 ft | 13 kts | 83° |
| 2026-05-05 18:01 | 49.20740 | -2.20239 | 280 ft | 76 kts | 83° |
| 2026-05-05 18:01 | 49.20841 | -2.19054 | 287 ft | 144 kts | 83° |
| 2026-05-05 18:01 | 49.20975 | -2.17461 | 864 ft | 153 kts | 78° |
| 2026-05-05 18:01 | 49.21106 | -2.15836 | 1673 ft | 153 kts | 77° |
| 2026-05-05 18:02 | 49.21254 | -2.14107 | 1915 ft | 175 kts | 77° |
| 2026-05-05 18:02 | 49.21425 | -2.12144 | 2129 ft | 198 kts | 78° |
| 2026-05-05 18:02 | 49.21607 | -2.09981 | 2616 ft | 210 kts | 78° |
| 2026-05-05 18:02 | 49.21792 | -2.07760 | 3434 ft | 210 kts | 76° |
| 2026-05-05 18:03 | 49.22344 | -2.05756 | 4235 ft | 204 kts | 45° |
| 2026-05-05 18:03 | 49.23520 | -2.04605 | 5053 ft | 205 kts | 14° |
| 2026-05-05 18:03 | 49.24935 | -2.04419 | 5823 ft | 209 kts | 2° |
| 2026-05-05 18:03 | 49.26403 | -2.04354 | 6594 ft | 213 kts | 2° |
| 2026-05-05 18:04 | 49.27964 | -2.04287 | 6994 ft | 236 kts | 2° |
| 2026-05-05 18:04 | 49.29690 | -2.04209 | 7398 ft | 258 kts | 2° |
| 2026-05-05 18:04 | 49.31517 | -2.04119 | 8097 ft | 266 kts | 2° |
| 2026-05-05 18:04 | 49.33382 | -2.04025 | 8911 ft | 271 kts | 2° |
| 2026-05-05 18:05 | 49.35290 | -2.03924 | 9688 ft | 277 kts | 2° |
| 2026-05-05 18:05 | 49.37204 | -2.03826 | 10433 ft | 280 kts | 2° |
| 2026-05-05 18:05 | 49.39160 | -2.03731 | 11209 ft | 282 kts | 2° |
| 2026-05-05 18:05 | 49.41142 | -2.03633 | 11941 ft | 286 kts | 2° |
| 2026-05-05 18:06 | 49.43145 | -2.03530 | 12669 ft | 290 kts | 3° |
| 2026-05-05 18:06 | 49.43829 | -2.03495 | 12920 ft | 291 kts | 3° |
| 2026-05-05 18:06 | 49.47219 | -2.03317 | 14117 ft | 296 kts | 3° |
| 2026-05-05 18:06 | 49.49312 | -2.02880 | 14344 ft | 314 kts | 19° |
| 2026-05-05 18:07 | 49.51435 | -2.01672 | 14473 ft | 335 kts | 21° |
| 2026-05-05 18:07 | 49.53670 | -2.00341 | 14661 ft | 352 kts | 21° |
| 2026-05-05 18:07 | 49.55975 | -1.98953 | 15135 ft | 358 kts | 21° |
| 2026-05-05 18:07 | 49.58313 | -1.97546 | 15712 ft | 362 kts | 21° |
| 2026-05-05 18:08 | 49.60670 | -1.96135 | 16291 ft | 365 kts | 21° |
| 2026-05-05 18:08 | 49.63044 | -1.94717 | 16877 ft | 368 kts | 21° |
| 2026-05-05 18:08 | 49.65409 | -1.93308 | 17459 ft | 370 kts | 21° |
| 2026-05-05 18:08 | 49.67823 | -1.91868 | 18051 ft | 373 kts | 21° |
| 2026-05-05 18:09 | 49.70256 | -1.90409 | 18597 ft | 376 kts | 21° |
| 2026-05-05 18:09 | 49.72704 | -1.88935 | 19120 ft | 379 kts | 21° |
| 2026-05-05 18:09 | 49.75177 | -1.87448 | 19612 ft | 383 kts | 21° |
| 2026-05-05 18:09 | 49.77676 | -1.85951 | 20092 ft | 387 kts | 21° |
| 2026-05-05 18:10 | 49.80194 | -1.84445 | 20602 ft | 390 kts | 21° |
| 2026-05-05 18:10 | 49.82738 | -1.82920 | 20886 ft | 392 kts | 21° |
| 2026-05-05 18:10 | 49.85313 | -1.81372 | 20941 ft | 403 kts | 21° |
| 2026-05-05 18:10 | 49.87971 | -1.79765 | 20945 ft | 415 kts | 21° |
| 2026-05-05 18:11 | 49.90670 | -1.78130 | 20939 ft | 418 kts | 21° |
| 2026-05-05 18:11 | 49.93380 | -1.76488 | 20936 ft | 419 kts | 21° |
| 2026-05-05 18:11 | 49.96098 | -1.74842 | 20932 ft | 419 kts | 21° |
| 2026-05-05 18:11 | 49.98820 | -1.73195 | 20932 ft | 421 kts | 21° |
| 2026-05-05 18:12 | 50.01551 | -1.71541 | 20938 ft | 421 kts | 21° |
| 2026-05-05 18:12 | 50.04247 | -1.69903 | 20941 ft | 422 kts | 21° |
| 2026-05-05 18:12 | 50.06980 | -1.68233 | 20938 ft | 422 kts | 21° |
| 2026-05-05 18:12 | 50.09745 | -1.66544 | 20935 ft | 422 kts | 21° |
| 2026-05-05 18:13 | 50.12441 | -1.64908 | 20939 ft | 421 kts | 21° |
| 2026-05-05 18:13 | 50.15173 | -1.63251 | 20938 ft | 421 kts | 21° |
| 2026-05-05 18:13 | 50.17904 | -1.61586 | 20937 ft | 421 kts | 21° |
| 2026-05-05 18:13 | 50.20639 | -1.59912 | 20930 ft | 421 kts | 21° |
| 2026-05-05 18:14 | 50.23371 | -1.58239 | 20922 ft | 422 kts | 21° |
| 2026-05-05 18:14 | 50.25179 | -1.57128 | 20922 ft | 422 kts | 21° |
| 2026-05-05 18:14 | 50.27924 | -1.55487 | 20920 ft | 422 kts | 19° |
| 2026-05-05 18:14 | 50.30703 | -1.54007 | 20921 ft | 423 kts | 18° |
| 2026-05-05 18:15 | 50.33515 | -1.52645 | 20919 ft | 423 kts | 17° |
| 2026-05-05 18:15 | 50.36340 | -1.51338 | 20922 ft | 423 kts | 16° |
| 2026-05-05 18:15 | 50.39166 | -1.50037 | 20925 ft | 423 kts | 16° |
| 2026-05-05 18:15 | 50.41990 | -1.48710 | 20924 ft | 423 kts | 17° |
| 2026-05-05 18:16 | 50.44806 | -1.47355 | 20924 ft | 423 kts | 17° |
| 2026-05-05 18:16 | 50.47621 | -1.45972 | 20923 ft | 423 kts | 17° |
| 2026-05-05 18:16 | 50.50430 | -1.44576 | 20918 ft | 424 kts | 17° |
| 2026-05-05 18:16 | 50.53225 | -1.43116 | 20914 ft | 424 kts | 21° |
| 2026-05-05 18:17 | 50.55853 | -1.41137 | 20915 ft | 424 kts | 28° |
| 2026-05-05 18:17 | 50.58404 | -1.38939 | 20684 ft | 410 kts | 28° |
| 2026-05-05 18:17 | 50.60868 | -1.36821 | 20435 ft | 398 kts | 28° |
| 2026-05-05 18:17 | 50.63286 | -1.34745 | 20191 ft | 394 kts | 28° |
| 2026-05-05 18:18 | 50.65686 | -1.32681 | 19937 ft | 392 kts | 28° |
| 2026-05-05 18:18 | 50.68078 | -1.30621 | 19686 ft | 391 kts | 28° |
| 2026-05-05 18:18 | 50.70463 | -1.28564 | 19447 ft | 390 kts | 28° |
| 2026-05-05 18:18 | 50.72833 | -1.26521 | 19205 ft | 388 kts | 28° |
| 2026-05-05 18:19 | 50.75202 | -1.24480 | 18968 ft | 387 kts | 28° |
| 2026-05-05 18:19 | 50.77531 | -1.22398 | 18720 ft | 383 kts | 31° |
| 2026-05-05 18:19 | 50.79776 | -1.20195 | 18268 ft | 378 kts | 32° |
| 2026-05-05 18:19 | 50.81964 | -1.17919 | 17717 ft | 375 kts | 33° |
| 2026-05-05 18:20 | 50.84116 | -1.15625 | 17193 ft | 370 kts | 34° |
| 2026-05-05 18:20 | 50.86233 | -1.13355 | 16679 ft | 366 kts | 34° |
| 2026-05-05 18:20 | 50.88335 | -1.11119 | 16137 ft | 362 kts | 33° |
| 2026-05-05 18:20 | 50.90424 | -1.08924 | 15611 ft | 359 kts | 33° |
| 2026-05-05 18:21 | 50.92510 | -1.06755 | 15064 ft | 357 kts | 33° |
| 2026-05-05 18:21 | 50.94587 | -1.04607 | 14527 ft | 356 kts | 33° |
| 2026-05-05 18:21 | 50.96657 | -1.02467 | 13980 ft | 354 kts | 33° |
| 2026-05-05 18:21 | 50.98715 | -1.00337 | 13399 ft | 353 kts | 33° |
| 2026-05-05 18:22 | 51.00673 | -0.98031 | 12891 ft | 349 kts | 42° |
| 2026-05-05 18:22 | 51.02329 | -0.95224 | 12939 ft | 352 kts | 47° |
| 2026-05-05 18:22 | 51.03965 | -0.92303 | 12942 ft | 354 kts | 48° |
| 2026-05-05 18:22 | 51.05586 | -0.89426 | 12943 ft | 354 kts | 48° |
| 2026-05-05 18:23 | 51.07231 | -0.86509 | 12942 ft | 351 kts | 48° |
| 2026-05-05 18:23 | 51.08812 | -0.83697 | 12939 ft | 332 kts | 48° |
| 2026-05-05 18:23 | 51.10312 | -0.81028 | 12941 ft | 315 kts | 48° |
| 2026-05-05 18:23 | 51.11740 | -0.78485 | 12942 ft | 301 kts | 48° |
| 2026-05-05 18:24 | 51.13120 | -0.76027 | 12722 ft | 296 kts | 48° |
| 2026-05-05 18:24 | 51.14487 | -0.73584 | 12391 ft | 294 kts | 48° |
| 2026-05-05 18:24 | 51.15840 | -0.71153 | 12058 ft | 293 kts | 48° |
| 2026-05-05 18:24 | 51.17189 | -0.68729 | 11701 ft | 292 kts | 47° |
| 2026-05-05 18:25 | 51.18536 | -0.66314 | 11395 ft | 289 kts | 47° |
| 2026-05-05 18:25 | 51.19411 | -0.64744 | 11323 ft | 283 kts | 47° |
| 2026-05-05 18:25 | 51.21125 | -0.61663 | 11144 ft | 272 kts | 47° |
| 2026-05-05 18:25 | 51.22361 | -0.59434 | 11024 ft | 264 kts | 47° |
| 2026-05-05 18:26 | 51.23561 | -0.57270 | 10885 ft | 257 kts | 47° |
| 2026-05-05 18:26 | 51.24741 | -0.55142 | 10659 ft | 255 kts | 47° |
| 2026-05-05 18:26 | 51.25914 | -0.53038 | 10415 ft | 252 kts | 45° |
| 2026-05-05 18:26 | 51.27328 | -0.51465 | 10139 ft | 249 kts | 18° |
| 2026-05-05 18:27 | 51.29027 | -0.51190 | 9844 ft | 246 kts | 349° |
| 2026-05-05 18:27 | 51.30580 | -0.52255 | 9534 ft | 245 kts | 321° |
| 2026-05-05 18:27 | 51.31611 | -0.54353 | 9228 ft | 246 kts | 294° |
| 2026-05-05 18:27 | 51.32035 | -0.57003 | 8898 ft | 247 kts | 282° |
| 2026-05-05 18:28 | 51.32623 | -0.62405 | 8291 ft | 245 kts | 281° |
| 2026-05-05 18:28 | 51.32900 | -0.65085 | 7998 ft | 244 kts | 281° |
| 2026-05-05 18:28 | 51.33174 | -0.67760 | 7715 ft | 243 kts | 281° |
| 2026-05-05 18:29 | 51.33443 | -0.70418 | 7431 ft | 242 kts | 281° |
| 2026-05-05 18:29 | 51.33711 | -0.73066 | 7143 ft | 241 kts | 281° |
| 2026-05-05 18:29 | 51.33976 | -0.75704 | 6866 ft | 240 kts | 281° |
| 2026-05-05 18:29 | 51.34237 | -0.78331 | 6577 ft | 239 kts | 281° |
| 2026-05-05 18:30 | 51.34497 | -0.80948 | 6296 ft | 238 kts | 281° |
| 2026-05-05 18:30 | 51.34755 | -0.83559 | 6020 ft | 236 kts | 281° |
| 2026-05-05 18:30 | 51.35003 | -0.86112 | 5872 ft | 228 kts | 281° |
| 2026-05-05 18:30 | 51.35239 | -0.88582 | 5738 ft | 221 kts | 281° |
| 2026-05-05 18:31 | 51.35460 | -0.90919 | 5617 ft | 214 kts | 281° |
| 2026-05-05 18:31 | 51.35819 | -0.93151 | 5489 ft | 201 kts | 303° |
| 2026-05-05 18:31 | 51.36786 | -0.94564 | 5315 ft | 185 kts | 340° |
| 2026-05-05 18:31 | 51.38034 | -0.94898 | 5002 ft | 182 kts | 358° |
| 2026-05-05 18:32 | 51.39302 | -0.94936 | 4662 ft | 182 kts | 1° |
| 2026-05-05 18:32 | 51.40565 | -0.94938 | 4328 ft | 181 kts | 1° |
| 2026-05-05 18:32 | 51.41823 | -0.94936 | 3999 ft | 180 kts | 1° |
| 2026-05-05 18:32 | 51.43078 | -0.94931 | 3661 ft | 180 kts | 1° |
| 2026-05-05 18:33 | 51.44316 | -0.94927 | 3351 ft | 180 kts | 1° |
| 2026-05-05 18:33 | 51.45521 | -0.94557 | 3050 ft | 177 kts | 31° |
| 2026-05-05 18:33 | 51.46470 | -0.93298 | 3006 ft | 180 kts | 47° |
| 2026-05-05 18:33 | 51.47153 | -0.91619 | 3006 ft | 181 kts | 64° |
| 2026-05-05 18:34 | 51.47490 | -0.89662 | 3008 ft | 184 kts | 82° |
| 2026-05-05 18:34 | 51.47522 | -0.87607 | 3004 ft | 184 kts | 86° |
| 2026-05-05 18:34 | 51.47538 | -0.85549 | 2998 ft | 185 kts | 86° |
| 2026-05-05 18:34 | 51.47553 | -0.83485 | 3005 ft | 185 kts | 86° |
| 2026-05-05 18:35 | 51.47567 | -0.81419 | 3004 ft | 185 kts | 86° |
| 2026-05-05 18:35 | 51.47581 | -0.79364 | 3004 ft | 180 kts | 86° |
| 2026-05-05 18:35 | 51.47593 | -0.77426 | 3015 ft | 169 kts | 86° |
| 2026-05-05 18:35 | 51.47605 | -0.75560 | 3007 ft | 165 kts | 86° |
| 2026-05-05 18:36 | 51.47617 | -0.73728 | 3001 ft | 164 kts | 86° |
| 2026-05-05 18:36 | 51.47629 | -0.71897 | 2920 ft | 164 kts | 86° |
| 2026-05-05 18:36 | 51.47640 | -0.70079 | 2755 ft | 163 kts | 87° |
| 2026-05-05 18:36 | 51.47651 | -0.68265 | 2545 ft | 162 kts | 86° |
| 2026-05-05 18:37 | 51.47661 | -0.66464 | 2330 ft | 162 kts | 87° |
| 2026-05-05 18:37 | 51.47671 | -0.64687 | 2117 ft | 161 kts | 87° |
| 2026-05-05 18:37 | 51.47680 | -0.62881 | 1897 ft | 160 kts | 86° |
| 2026-05-05 18:37 | 51.47690 | -0.61099 | 1682 ft | 160 kts | 87° |
| 2026-05-05 18:38 | 51.47698 | -0.59382 | 1465 ft | 147 kts | 87° |
| 2026-05-05 18:38 | 51.47706 | -0.57790 | 1270 ft | 140 kts | 88° |
| 2026-05-05 18:38 | 51.47709 | -0.56261 | 1084 ft | 139 kts | 88° |
| 2026-05-05 18:38 | 51.47714 | -0.54695 | 914 ft | 138 kts | 86° |
| 2026-05-05 18:39 | 51.47730 | -0.53166 | 683 ft | 139 kts | 87° |
| 2026-05-05 18:39 | 51.47730 | -0.51618 | 521 ft | 138 kts | 88° |
| 2026-05-05 18:39 | 51.47734 | -0.50078 | 310 ft | 137 kts | 86° |
| 2026-05-05 18:39 | 51.47750 | -0.48545 | 149 ft | 138 kts | 87° |
| 2026-05-05 18:40 | 51.47756 | -0.47096 | 87 ft | 106 kts | 90° |
| 2026-05-05 18:40 | 51.47758 | -0.46387 | 90 ft | 32 kts | 89° |
| 2026-05-05 18:40 | 51.47676 | -0.46113 | 87 ft | 29 kts | 143° |
| 2026-05-05 18:40 | 51.47594 | -0.46145 | 90 ft | 15 kts | 265° |
| 2026-05-05 18:41 | 51.47594 | -0.46327 | 89 ft | 18 kts | 270° |
| 2026-05-05 18:41 | 51.47593 | -0.46537 | 86 ft | 20 kts | 269° |
| 2026-05-05 18:41 | 51.47592 | -0.46778 | 86 ft | 23 kts | 270° |
| 2026-05-05 18:41 | 51.47583 | -0.47042 | 88 ft | 25 kts | 269° |
| 2026-05-05 18:42 | 51.47582 | -0.47335 | 90 ft | 27 kts | 270° |
| 2026-05-05 18:42 | 51.47580 | -0.47652 | 88 ft | 30 kts | 270° |
| 2026-05-05 18:42 | 51.47579 | -0.47974 | 88 ft | 28 kts | 269° |
| 2026-05-05 18:42 | 51.47578 | -0.48294 | 90 ft | 30 kts | 269° |
| 2026-05-05 18:43 | 51.47545 | -0.48476 | 87 ft | 12 kts | 189° |
| 2026-05-05 18:43 | 51.47458 | -0.48475 | 86 ft | 14 kts | 180° |
| 2026-05-05 18:43 | 51.47346 | -0.48475 | 86 ft | 18 kts | 179° |
| 2026-05-05 18:43 | 51.47208 | -0.48473 | 86 ft | 22 kts | 179° |
| 2026-05-05 18:44 | 51.47043 | -0.48471 | 86 ft | 26 kts | 179° |
| 2026-05-05 18:44 | 51.46889 | -0.48486 | 87 ft | 15 kts | 214° |
| 2026-05-05 18:44 | 51.46870 | -0.48615 | 87 ft | 8 kts | 226° |
| 2026-05-05 18:44 | 51.46839 | -0.48620 | 86 ft | 1 kts | 178° |
| 2026-05-05 18:45 | 51.46837 | -0.48620 | 86 ft | 0 kts | 178° |